Time;durP1;ratioP1;P1;durP2;ratioP2;P2;SDS_P1;SDS_P2;PMS_P1;PMS_P2;Temp;Humidity;BMP_temperature;BMP_pressure;BME280_temperature;BME280_humidity;BME280_pressure;Samples;Min_cycle;Max_cycle;Signal;HPM_P1;HPM_P2
2024/03/02 00:01:59;;;;;;;48.55;22.48;;;;;;;;;;5099607;28;20430;-55
2024/03/02 00:04:25;;;;;;;49.15;22.75;;;;;;;;;;5084543;28;20116;-56
2024/03/02 00:06:54;;;;;;;52.40;23.23;;;;;;;;;;5090889;28;20023;-56
2024/03/02 00:09:20;;;;;;;46.15;19.67;;;;;;;;;;5090375;28;20020;-56
2024/03/02 00:11:46;;;;;;;39.80;17.23;;;;;;;;;;5097770;28;20106;-56
2024/03/02 00:14:12;;;;;;;40.95;17.70;;;;;;;;;;5091173;28;20456;-54
2024/03/02 00:16:38;;;;;;;39.55;18.27;;;;;;;;;;5085946;28;20123;-55
2024/03/02 00:19:06;;;;;;;44.03;19.30;;;;;;;;;;5086738;28;20111;-56
2024/03/02 00:21:32;;;;;;;39.55;19.00;;;;;;;;;;5091009;28;20783;-52
2024/03/02 00:23:58;;;;;;;39.70;17.90;;;;;;;;;;5098047;28;20027;-56
2024/03/02 00:26:24;;;;;;;43.03;20.08;;;;;;;;;;5115902;28;20055;-56
2024/03/02 00:28:50;;;;;;;37.45;18.42;;;;;;;;;;5103696;28;20640;-54
2024/03/02 00:31:17;;;;;;;40.30;19.27;;;;;;;;;;5096825;28;20435;-56
2024/03/02 00:33:44;;;;;;;38.35;18.38;;;;;;;;;;5101426;28;20158;-55
2024/03/02 00:36:11;;;;;;;42.47;20.05;;;;;;;;;;5089633;28;20064;-54
2024/03/02 00:38:45;;;;;;;38.90;17.67;;;;;;;;;;5110233;28;20097;-56
2024/03/02 00:41:16;;;;;;;40.95;19.23;;;;;;;;;;5095539;28;20510;-56
2024/03/02 00:43:44;;;;;;;32.63;16.20;;;;;;;;;;5102097;28;20024;-56
2024/03/02 00:46:18;;;;;;;36.35;17.75;;;;;;;;;;5108407;28;20024;-55
2024/03/02 00:49:03;;;;;;;38.03;17.77;;;;;;;;;;5112416;28;20063;-55
2024/03/02 00:51:33;;;;;;;35.65;16.77;;;;;;;;;;5088016;28;20024;-56
2024/03/02 00:54:00;;;;;;;33.53;17.27;;;;;;;;;;5097827;28;20038;-57
2024/03/02 00:56:27;;;;;;;44.85;18.92;;;;;;;;;;5091113;28;20028;-56
2024/03/02 00:58:53;;;;;;;38.55;16.92;;;;;;;;;;5105446;28;20510;-53
2024/03/02 01:01:22;;;;;;;37.88;17.65;;;;;;;;;;5105727;28;20055;-49
2024/03/02 01:03:51;;;;;;;36.85;18.77;;;;;;;;;;5097085;28;20103;-51
2024/03/02 01:06:17;;;;;;;37.80;17.42;;;;;;;;;;5085190;28;20025;-50
2024/03/02 01:08:43;;;;;;;41.05;18.70;;;;;;;;;;5104647;28;20040;-49
2024/03/02 01:11:09;;;;;;;41.30;18.05;;;;;;;;;;5106005;28;20028;-51
2024/03/02 01:13:35;;;;;;;39.03;19.13;;;;;;;;;;5094718;28;20132;-48
2024/03/02 01:16:02;;;;;;;35.92;18.58;;;;;;;;;;5111718;28;20107;-52
2024/03/02 01:18:28;;;;;;;34.92;18.00;;;;;;;;;;5094556;28;20048;-48
2024/03/02 01:20:57;;;;;;;39.40;19.48;;;;;;;;;;5108697;28;20505;-49
2024/03/02 01:23:23;;;;;;;41.80;19.42;;;;;;;;;;5112319;28;20118;-50
2024/03/02 01:25:50;;;;;;;37.80;18.88;;;;;;;;;;5104557;28;20208;-49
2024/03/02 01:28:16;;;;;;;41.67;19.55;;;;;;;;;;5099478;28;20031;-50
2024/03/02 01:30:42;;;;;;;40.30;19.75;;;;;;;;;;5109926;28;20019;-50
2024/03/02 01:33:08;;;;;;;37.28;18.23;;;;;;;;;;5111132;28;20479;-50
2024/03/02 01:35:34;;;;;;;35.35;17.48;;;;;;;;;;5097922;28;20038;-51
2024/03/02 01:38:01;;;;;;;38.53;17.10;;;;;;;;;;5103480;28;20035;-49
2024/03/02 01:40:27;;;;;;;35.25;17.70;;;;;;;;;;5110051;28;20020;-49
2024/03/02 01:42:54;;;;;;;42.67;18.30;;;;;;;;;;5103717;28;20056;-48
2024/03/02 01:45:20;;;;;;;41.88;20.27;;;;;;;;;;5099232;28;20380;-51
2024/03/02 01:47:46;;;;;;;40.20;18.52;;;;;;;;;;5089433;28;20111;-50
2024/03/02 01:50:13;;;;;;;35.80;18.27;;;;;;;;;;5090115;28;20390;-49
2024/03/02 01:52:39;;;;;;;36.60;17.75;;;;;;;;;;5106224;28;20128;-51
2024/03/02 01:55:06;;;;;;;45.05;19.73;;;;;;;;;;5101431;28;20074;-51
2024/03/02 01:57:32;;;;;;;37.88;18.17;;;;;;;;;;5096164;28;20024;-50
2024/03/02 01:59:58;;;;;;;38.05;19.13;;;;;;;;;;5111207;28;20526;-47
2024/03/02 02:02:24;;;;;;;42.55;19.60;;;;;;;;;;5111424;28;20471;-56
2024/03/02 02:04:50;;;;;;;46.15;20.90;;;;;;;;;;5111372;28;20027;-57
2024/03/02 02:07:16;;;;;;;39.45;19.63;;;;;;;;;;5091329;28;20520;-56
2024/03/02 02:09:42;;;;;;;43.53;20.58;;;;;;;;;;5091966;28;20024;-57
2024/03/02 02:12:09;;;;;;;43.75;22.35;;;;;;;;;;5088827;28;20020;-56
2024/03/02 02:14:35;;;;;;;50.17;23.27;;;;;;;;;;5083373;28;20032;-56
2024/03/02 02:17:01;;;;;;;47.17;23.52;;;;;;;;;;5103049;28;20036;-57
2024/03/02 02:19:27;;;;;;;47.58;22.95;;;;;;;;;;5113669;28;20059;-55
2024/03/02 02:21:53;;;;;;;46.67;23.27;;;;;;;;;;5112334;28;20099;-56
2024/03/02 02:24:19;;;;;;;52.10;23.80;;;;;;;;;;5095272;28;20028;-55
2024/03/02 02:26:45;;;;;;;53.40;25.73;;;;;;;;;;5107155;28;20032;-56
2024/03/02 02:29:11;;;;;;;48.33;24.35;;;;;;;;;;5087141;28;20035;-57
2024/03/02 02:31:38;;;;;;;49.97;23.92;;;;;;;;;;5107670;28;20062;-57
2024/03/02 02:34:04;;;;;;;55.42;24.42;;;;;;;;;;5112134;28;20046;-57
2024/03/02 02:36:30;;;;;;;54.50;25.23;;;;;;;;;;5097175;28;20028;-56
2024/03/02 02:38:56;;;;;;;52.67;24.20;;;;;;;;;;5092578;28;20055;-56
2024/03/02 02:41:22;;;;;;;56.42;25.80;;;;;;;;;;5091729;28;20059;-56
2024/03/02 02:43:48;;;;;;;50.85;24.00;;;;;;;;;;5092633;28;20027;-57
2024/03/02 02:46:14;;;;;;;54.20;24.70;;;;;;;;;;5090128;28;20042;-57
2024/03/02 02:48:40;;;;;;;50.85;24.92;;;;;;;;;;5103408;28;20081;-55
2024/03/02 02:51:06;;;;;;;57.80;28.30;;;;;;;;;;5088077;28;20042;-57
2024/03/02 02:53:32;;;;;;;54.17;24.27;;;;;;;;;;5094200;28;20024;-56
2024/03/02 02:55:58;;;;;;;44.45;21.95;;;;;;;;;;5087309;28;20028;-58
2024/03/02 02:58:24;;;;;;;43.25;21.17;;;;;;;;;;5077015;28;20502;-57
2024/03/02 03:00:50;;;;;;;45.28;21.00;;;;;;;;;;5105118;28;20568;-56
2024/03/02 03:03:16;;;;;;;56.13;23.42;;;;;;;;;;5109396;28;20480;-57
2024/03/02 03:05:42;;;;;;;47.75;23.02;;;;;;;;;;5098665;28;20058;-56
2024/03/02 03:08:08;;;;;;;44.28;20.33;;;;;;;;;;5092733;28;20082;-49
2024/03/02 03:10:34;;;;;;;47.13;22.20;;;;;;;;;;5110376;28;20027;-49
2024/03/02 03:13:00;;;;;;;57.78;27.23;;;;;;;;;;5100485;28;20020;-48
2024/03/02 03:15:26;;;;;;;72.15;31.15;;;;;;;;;;5096788;28;20101;-49
2024/03/02 03:17:51;;;;;;;58.90;30.08;;;;;;;;;;5112470;28;20059;-50
2024/03/02 03:20:17;;;;;;;66.05;29.50;;;;;;;;;;5102306;28;20024;-49
2024/03/02 03:22:44;;;;;;;68.20;31.48;;;;;;;;;;5092083;28;20031;-51
2024/03/02 03:25:10;;;;;;;68.47;30.65;;;;;;;;;;5099463;28;20024;-49
2024/03/02 03:27:35;;;;;;;71.00;34.38;;;;;;;;;;5105103;28;20035;-52
2024/03/02 03:30:02;;;;;;;72.32;33.10;;;;;;;;;;5105241;28;20023;-50
2024/03/02 03:32:28;;;;;;;66.97;31.45;;;;;;;;;;5111510;28;20394;-51
2024/03/02 03:34:54;;;;;;;68.45;30.65;;;;;;;;;;5111124;28;20042;-50
2024/03/02 03:37:20;;;;;;;68.50;33.13;;;;;;;;;;5112024;28;20379;-49
2024/03/02 03:39:46;;;;;;;73.22;30.98;;;;;;;;;;5101538;28;20027;-48
2024/03/02 03:42:12;;;;;;;70.20;31.60;;;;;;;;;;5091852;28;20509;-50
2024/03/02 03:44:40;;;;;;;66.68;31.65;;;;;;;;;;5095363;28;20028;-49
2024/03/02 03:47:06;;;;;;;70.90;32.50;;;;;;;;;;5106801;28;20449;-48
2024/03/02 03:49:32;;;;;;;77.82;34.33;;;;;;;;;;5091803;28;20028;-50
2024/03/02 03:51:58;;;;;;;73.53;33.20;;;;;;;;;;5088842;28;20120;-51
2024/03/02 03:54:24;;;;;;;66.03;31.33;;;;;;;;;;5105457;28;20028;-49
2024/03/02 03:56:50;;;;;;;56.70;28.40;;;;;;;;;;5109077;28;20441;-50
2024/03/02 03:59:16;;;;;;;61.00;27.85;;;;;;;;;;5097196;28;20051;-52
2024/03/02 04:01:42;;;;;;;55.75;25.00;;;;;;;;;;5096540;28;20024;-51
2024/03/02 04:04:08;;;;;;;53.88;26.70;;;;;;;;;;5107076;28;20016;-48
2024/03/02 04:06:34;;;;;;;65.07;27.63;;;;;;;;;;5099326;28;20015;-49
2024/03/02 04:09:00;;;;;;;65.22;28.15;;;;;;;;;;5107905;28;20034;-49
2024/03/02 04:11:26;;;;;;;59.63;26.77;;;;;;;;;;5103121;28;20028;-51
2024/03/02 04:13:52;;;;;;;59.42;27.95;;;;;;;;;;5108934;28;20042;-51
2024/03/02 04:16:18;;;;;;;70.75;29.05;;;;;;;;;;5115177;28;20024;-51
2024/03/02 04:18:44;;;;;;;61.35;28.88;;;;;;;;;;5095812;28;20080;-56
2024/03/02 04:21:10;;;;;;;72.18;32.15;;;;;;;;;;5113507;28;20019;-55
2024/03/02 04:23:36;;;;;;;67.63;31.85;;;;;;;;;;5102647;28;20027;-56
2024/03/02 04:26:02;;;;;;;60.72;29.55;;;;;;;;;;5113815;28;20027;-56
2024/03/02 04:28:28;;;;;;;68.90;31.70;;;;;;;;;;5099380;28;20039;-56
2024/03/02 04:30:53;;;;;;;68.78;33.55;;;;;;;;;;5101673;28;20442;-56
2024/03/02 04:33:19;;;;;;;76.22;31.77;;;;;;;;;;5108574;28;20106;-56
2024/03/02 04:35:46;;;;;;;63.95;29.08;;;;;;;;;;5115676;28;20085;-56
2024/03/02 04:38:12;;;;;;;71.93;31.30;;;;;;;;;;5111527;28;20035;-56
2024/03/02 04:40:38;;;;;;;66.57;31.85;;;;;;;;;;5098392;28;20020;-54
2024/03/02 04:43:04;;;;;;;72.55;32.60;;;;;;;;;;5101204;28;20020;-56
2024/03/02 04:45:30;;;;;;;70.32;32.15;;;;;;;;;;5103396;28;20024;-56
2024/03/02 04:47:56;;;;;;;71.30;32.70;;;;;;;;;;5095215;28;20573;-56
2024/03/02 04:50:22;;;;;;;76.03;32.75;;;;;;;;;;5108470;28;20042;-57
2024/03/02 04:52:48;;;;;;;76.55;31.50;;;;;;;;;;5099644;28;20032;-56
2024/03/02 04:55:45;;;;;;;70.15;31.85;;;;;;;;;;5095553;28;20016;-55
2024/03/02 04:58:09;;;;;;;75.22;32.92;;;;;;;;;;5098380;28;20031;-56
2024/03/02 05:00:35;;;;;;;67.47;31.20;;;;;;;;;;5111488;28;20039;-56
2024/03/02 05:03:02;;;;;;;70.07;32.03;;;;;;;;;;5090925;28;20082;-56
2024/03/02 05:05:27;;;;;;;74.10;33.45;;;;;;;;;;5087532;28;20502;-56
2024/03/02 05:07:54;;;;;;;69.80;32.58;;;;;;;;;;5095117;28;20028;-56
2024/03/02 05:10:20;;;;;;;65.47;31.77;;;;;;;;;;5091073;28;20023;-56
2024/03/02 05:15:13;;;;;;;76.63;32.63;;;;;;;;;;5094579;28;20048;-56
2024/03/02 05:17:45;;;;;;;78.50;34.20;;;;;;;;;;5094284;28;20040;-56
2024/03/02 05:20:11;;;;;;;77.47;34.17;;;;;;;;;;5092632;28;20031;-57
2024/03/02 05:22:38;;;;;;;76.93;33.70;;;;;;;;;;5094157;28;20036;-54
2024/03/02 05:25:04;;;;;;;73.13;32.83;;;;;;;;;;5089490;28;20109;-55
2024/03/02 05:27:32;;;;;;;74.50;33.58;;;;;;;;;;5100773;28;20084;-57
2024/03/02 05:29:58;;;;;;;65.57;31.70;;;;;;;;;;5095240;28;20029;-57
2024/03/02 05:32:24;;;;;;;66.63;33.53;;;;;;;;;;5088818;28;20047;-57
2024/03/02 05:34:50;;;;;;;69.07;31.65;;;;;;;;;;5092752;28;20116;-57
2024/03/02 05:37:16;;;;;;;64.93;31.00;;;;;;;;;;5094309;28;20529;-57
2024/03/02 05:39:45;;;;;;;79.38;32.17;;;;;;;;;;5093985;28;20028;-57
2024/03/02 05:42:11;;;;;;;70.03;33.03;;;;;;;;;;5099679;28;20023;-55
2024/03/02 05:44:37;;;;;;;64.20;31.88;;;;;;;;;;5108913;28;20080;-57
2024/03/02 05:47:03;;;;;;;69.10;32.13;;;;;;;;;;5110358;28;20024;-57
2024/03/02 05:49:29;;;;;;;66.20;31.30;;;;;;;;;;5089673;28;20030;-57
2024/03/02 05:51:55;;;;;;;67.43;30.60;;;;;;;;;;5093960;28;20480;-56
2024/03/02 05:54:21;;;;;;;70.28;33.50;;;;;;;;;;5093325;28;20042;-56
2024/03/02 05:56:47;;;;;;;65.68;30.10;;;;;;;;;;5095989;28;20024;-57
2024/03/02 05:59:13;;;;;;;70.90;32.92;;;;;;;;;;5084885;28;20490;-57
2024/03/02 06:01:39;;;;;;;70.35;32.97;;;;;;;;;;5095433;28;20020;-54
2024/03/02 06:04:06;;;;;;;77.10;32.85;;;;;;;;;;5095932;28;20034;-57
2024/03/02 06:06:33;;;;;;;74.90;32.17;;;;;;;;;;5089390;28;20614;-53
2024/03/02 06:08:59;;;;;;;70.90;32.38;;;;;;;;;;5093312;28;20027;-56
2024/03/02 06:11:25;;;;;;;66.32;31.48;;;;;;;;;;5093663;28;20093;-56
2024/03/02 06:13:51;;;;;;;67.38;30.60;;;;;;;;;;5092958;28;20472;-57
2024/03/02 06:16:17;;;;;;;68.78;31.88;;;;;;;;;;5088083;28;20440;-57
2024/03/02 06:18:43;;;;;;;67.70;29.33;;;;;;;;;;5088572;28;20051;-56
2024/03/02 06:21:09;;;;;;;65.57;31.77;;;;;;;;;;5098500;28;20020;-55
2024/03/02 06:23:35;;;;;;;66.20;28.63;;;;;;;;;;5087777;28;20036;-57
2024/03/02 06:26:02;;;;;;;68.45;30.42;;;;;;;;;;5086776;28;20420;-53
2024/03/02 06:28:28;;;;;;;68.10;30.85;;;;;;;;;;5090031;28;20138;-57
2024/03/02 06:30:54;;;;;;;69.68;31.20;;;;;;;;;;5092202;28;20043;-57
2024/03/02 06:33:20;;;;;;;65.13;30.75;;;;;;;;;;5091573;28;20484;-56
2024/03/02 06:35:46;;;;;;;68.03;30.27;;;;;;;;;;5078185;28;20031;-57
2024/03/02 06:38:12;;;;;;;63.78;30.83;;;;;;;;;;5092170;28;20056;-53
2024/03/02 06:40:39;;;;;;;57.97;28.25;;;;;;;;;;5088061;28;20444;-49
2024/03/02 06:43:05;;;;;;;62.53;29.35;;;;;;;;;;5088723;28;20063;-48
2024/03/02 06:45:33;;;;;;;66.68;31.25;;;;;;;;;;5092325;28;20028;-48
2024/03/02 06:47:59;;;;;;;57.72;27.75;;;;;;;;;;5105359;28;20050;-50
2024/03/02 06:50:25;;;;;;;66.25;31.23;;;;;;;;;;5091996;28;20036;-49
2024/03/02 06:52:51;;;;;;;68.80;31.40;;;;;;;;;;5091432;28;20077;-50
2024/03/02 06:55:17;;;;;;;65.78;30.83;;;;;;;;;;5092107;28;20063;-51
2024/03/02 06:57:43;;;;;;;67.40;31.17;;;;;;;;;;5086684;28;20027;-49
2024/03/02 07:00:09;;;;;;;71.57;31.40;;;;;;;;;;5088379;28;20042;-50
2024/03/02 07:02:36;;;;;;;63.35;30.73;;;;;;;;;;5097134;28;20036;-51
2024/03/02 07:05:02;;;;;;;61.22;29.55;;;;;;;;;;5090809;28;20035;-50
2024/03/02 07:07:28;;;;;;;69.18;32.55;;;;;;;;;;5082094;28;20044;-49
2024/03/02 07:09:54;;;;;;;68.55;31.42;;;;;;;;;;5102025;28;20051;-52
2024/03/02 07:12:20;;;;;;;67.18;31.77;;;;;;;;;;5088061;28;20032;-48
2024/03/02 07:17:31;;;;;;;75.10;31.80;;;;;;;;;;5105408;28;20438;-51
2024/03/02 07:19:57;;;;;;;66.68;30.23;;;;;;;;;;5091664;28;20028;-48
2024/03/02 07:22:23;;;;;;;70.78;31.00;;;;;;;;;;5089857;28;20024;-50
2024/03/02 07:24:49;;;;;;;67.32;31.60;;;;;;;;;;5091402;28;20464;-49
2024/03/02 07:27:17;;;;;;;65.88;30.13;;;;;;;;;;5092071;28;20028;-51
2024/03/02 07:29:43;;;;;;;66.68;31.98;;;;;;;;;;5092538;28;20032;-50
2024/03/02 07:32:10;;;;;;;75.22;30.83;;;;;;;;;;5069623;28;20560;-48
2024/03/02 07:34:37;;;;;;;65.40;30.48;;;;;;;;;;5092108;28;20043;-51
2024/03/02 07:37:03;;;;;;;70.43;30.13;;;;;;;;;;5091897;28;20024;-49
2024/03/02 07:39:29;;;;;;;70.88;30.58;;;;;;;;;;5094972;28;20027;-47
2024/03/02 07:41:55;;;;;;;68.80;30.75;;;;;;;;;;5098379;28;20085;-49
2024/03/02 07:44:22;;;;;;;66.90;29.95;;;;;;;;;;5086702;28;20455;-48
2024/03/02 07:46:51;;;;;;;64.15;30.50;;;;;;;;;;5094457;28;20407;-57
2024/03/02 07:49:18;;;;;;;63.63;31.17;;;;;;;;;;5091100;28;20399;-51
2024/03/02 07:51:44;;;;;;;60.63;30.95;;;;;;;;;;5091131;28;20107;-48
2024/03/02 07:54:10;;;;;;;65.20;29.42;;;;;;;;;;5090871;28;20104;-50
2024/03/02 07:56:36;;;;;;;65.90;31.80;;;;;;;;;;5090701;28;20032;-49
2024/03/02 07:59:02;;;;;;;103.10;65.88;;;;;;;;;;5089718;28;20028;-47
2024/03/02 08:01:31;;;;;;;78.32;42.13;;;;;;;;;;5090807;28;20103;-50
2024/03/02 08:03:58;;;;;;;78.70;41.83;;;;;;;;;;5090714;28;20039;-50
2024/03/02 08:06:27;;;;;;;69.63;31.58;;;;;;;;;;5082472;28;20028;-50
2024/03/02 08:08:53;;;;;;;62.85;29.17;;;;;;;;;;5090919;28;20032;-50
2024/03/02 08:11:19;;;;;;;61.83;29.92;;;;;;;;;;5090616;28;20031;-51
2024/03/02 08:13:45;;;;;;;71.35;30.90;;;;;;;;;;5085086;28;20380;-48
2024/03/02 08:16:11;;;;;;;64.60;30.38;;;;;;;;;;5081391;28;20032;-52
2024/03/02 08:18:37;;;;;;;65.80;30.55;;;;;;;;;;5088204;28;20127;-50
2024/03/02 08:21:03;;;;;;;59.85;29.33;;;;;;;;;;5085364;28;20032;-50
2024/03/02 08:23:30;;;;;;;66.28;34.90;;;;;;;;;;5081938;28;20028;-51
2024/03/02 08:25:56;;;;;;;66.55;31.60;;;;;;;;;;5090622;28;20102;-52
2024/03/02 08:28:23;;;;;;;65.07;33.40;;;;;;;;;;5084257;28;20613;-51
2024/03/02 08:30:49;;;;;;;119.90;60.10;;;;;;;;;;5090143;28;20472;-48
2024/03/02 08:33:15;;;;;;;68.20;31.98;;;;;;;;;;5078235;28;20182;-50
2024/03/02 08:35:41;;;;;;;55.97;28.92;;;;;;;;;;5083408;28;20044;-51
2024/03/02 08:38:07;;;;;;;60.50;27.45;;;;;;;;;;5085981;28;20499;-51
2024/03/02 08:40:33;;;;;;;62.13;28.52;;;;;;;;;;5075953;28;20188;-50
2024/03/02 08:42:59;;;;;;;86.82;44.38;;;;;;;;;;5091443;28;20032;-48
2024/03/02 08:45:25;;;;;;;67.15;29.75;;;;;;;;;;5092225;28;20077;-50
2024/03/02 08:47:51;;;;;;;59.40;28.60;;;;;;;;;;5093574;28;20028;-47
2024/03/02 08:50:17;;;;;;;62.75;30.33;;;;;;;;;;5094711;28;20076;-50
2024/03/02 08:52:43;;;;;;;66.60;29.33;;;;;;;;;;5085130;28;20036;-51
2024/03/02 08:55:11;;;;;;;107.80;62.20;;;;;;;;;;5076265;28;20043;-53
2024/03/02 08:57:37;;;;;;;64.18;31.98;;;;;;;;;;5085036;28;20097;-53
2024/03/02 09:00:05;;;;;;;55.97;26.92;;;;;;;;;;5104144;28;20020;-53
2024/03/02 09:02:31;;;;;;;57.60;29.20;;;;;;;;;;5093736;28;20023;-54
2024/03/02 09:04:56;;;;;;;61.13;28.08;;;;;;;;;;5102938;28;20051;-54
2024/03/02 09:07:22;;;;;;;57.53;27.60;;;;;;;;;;5101117;28;20058;-53
2024/03/02 09:09:48;;;;;;;57.65;27.85;;;;;;;;;;5089116;28;20476;-53
2024/03/02 09:12:14;;;;;;;62.50;28.92;;;;;;;;;;5099245;28;20031;-53
2024/03/02 09:14:41;;;;;;;64.32;29.20;;;;;;;;;;5096952;28;20032;-56
2024/03/02 09:17:08;;;;;;;98.00;50.90;;;;;;;;;;5096075;28;20499;-54
2024/03/02 09:19:34;;;;;;;65.25;31.63;;;;;;;;;;5093307;28;20027;-53
2024/03/02 09:22:02;;;;;;;78.88;41.95;;;;;;;;;;5093363;28;20428;-54
2024/03/02 09:24:28;;;;;;;64.88;28.67;;;;;;;;;;5087158;28;20012;-53
2024/03/02 09:26:54;;;;;;;54.38;27.52;;;;;;;;;;5075350;28;20028;-54
2024/03/02 09:29:20;;;;;;;59.67;28.42;;;;;;;;;;5097205;28;20122;-54
2024/03/02 09:31:46;;;;;;;69.20;35.97;;;;;;;;;;5103663;28;20032;-54
2024/03/02 09:34:14;;;;;;;67.72;30.20;;;;;;;;;;5093950;28;20476;-54
2024/03/02 09:36:41;;;;;;;64.45;34.60;;;;;;;;;;5092979;28;20035;-53
2024/03/02 09:39:09;;;;;;;61.85;30.10;;;;;;;;;;5093841;28;20028;-52
2024/03/02 09:41:35;;;;;;;51.00;25.13;;;;;;;;;;5099427;28;20097;-54
2024/03/02 09:44:01;;;;;;;55.63;26.05;;;;;;;;;;5092829;28;20053;-53
2024/03/02 09:46:28;;;;;;;59.25;29.75;;;;;;;;;;5105272;28;20035;-53
2024/03/02 09:48:53;;;;;;;49.45;24.55;;;;;;;;;;5105951;28;20035;-53
2024/03/02 09:51:20;;;;;;;53.50;25.42;;;;;;;;;;5101480;28;20031;-54
2024/03/02 09:53:48;;;;;;;48.78;24.67;;;;;;;;;;5083831;28;20115;-53
2024/03/02 09:56:15;;;;;;;55.10;25.23;;;;;;;;;;5076522;28;20035;-54
2024/03/02 09:58:42;;;;;;;54.92;26.80;;;;;;;;;;5093195;28;20036;-55
2024/03/02 10:01:09;;;;;;;50.85;24.77;;;;;;;;;;5085748;28;20024;-54
2024/03/02 10:03:37;;;;;;;49.60;24.92;;;;;;;;;;5092265;28;20441;-54
2024/03/02 10:06:21;;;;;;;46.25;24.30;;;;;;;;;;5092866;28;20038;-53
2024/03/02 10:08:50;;;;;;;52.00;25.23;;;;;;;;;;5086267;28;20031;-54
2024/03/02 10:11:33;;;;;;;47.30;25.05;;;;;;;;;;5092726;28;20103;-53
2024/03/02 10:13:59;;;;;;;;;;;;;;;;;;5085812;28;20032;-54
2024/03/02 10:16:25;;;;;;;43.40;23.13;;;;;;;;;;5096717;28;20275;-54
2024/03/02 10:18:51;;;;;;;50.00;24.75;;;;;;;;;;5092581;28;20039;-53
2024/03/02 10:21:17;;;;;;;50.63;24.35;;;;;;;;;;5098498;28;20099;-54
2024/03/02 10:23:43;;;;;;;45.17;22.92;;;;;;;;;;5103092;28;20046;-54
2024/03/02 10:26:19;;;;;;;50.85;24.65;;;;;;;;;;5092408;28;20467;-54
2024/03/02 10:28:48;;;;;;;41.33;21.92;;;;;;;;;;5092042;28;20739;-54
2024/03/02 10:31:14;;;;;;;35.92;19.85;;;;;;;;;;5084099;28;20036;-54
2024/03/02 10:33:40;;;;;;;38.25;19.35;;;;;;;;;;5089968;28;20028;-55
2024/03/02 10:36:06;;;;;;;37.63;19.92;;;;;;;;;;5093208;28;20552;-54
2024/03/02 10:38:32;;;;;;;33.42;18.58;;;;;;;;;;5091385;28;20028;-54
2024/03/02 10:40:59;;;;;;;39.65;20.17;;;;;;;;;;5092268;28;20095;-54
2024/03/02 10:43:26;;;;;;;34.50;19.27;;;;;;;;;;5092421;28;20081;-54
2024/03/02 10:45:53;;;;;;;36.30;19.20;;;;;;;;;;5095968;28;20095;-55
2024/03/02 10:48:19;;;;;;;32.83;18.35;;;;;;;;;;5092003;28;20036;-55
2024/03/02 10:50:45;;;;;;;37.60;18.90;;;;;;;;;;5092113;28;20028;-55
2024/03/02 10:53:11;;;;;;;33.28;18.17;;;;;;;;;;5091535;28;20107;-55
2024/03/02 10:55:38;;;;;;;30.73;16.50;;;;;;;;;;5091860;28;20024;-54
2024/03/02 10:58:06;;;;;;;32.97;16.42;;;;;;;;;;5091916;28;20032;-54
2024/03/02 11:00:34;;;;;;;34.47;17.55;;;;;;;;;;5091559;28;20028;-53
2024/03/02 11:03:08;;;;;;;38.70;18.42;;;;;;;;;;5085948;28;20024;-54
2024/03/02 11:05:36;;;;;;;34.45;18.08;;;;;;;;;;5097075;28;20102;-54
2024/03/02 11:08:03;;;;;;;36.75;17.45;;;;;;;;;;5086314;28;20467;-54
2024/03/02 11:10:33;;;;;;;27.30;16.30;;;;;;;;;;5091730;28;20035;-54
2024/03/02 11:13:05;;;;;;;34.53;16.70;;;;;;;;;;5100263;28;20027;-55
2024/03/02 11:15:32;;;;;;;34.67;16.67;;;;;;;;;;5097981;28;20028;-55
2024/03/02 11:17:58;;;;;;;36.83;18.05;;;;;;;;;;5096322;28;20052;-51
2024/03/02 11:20:25;;;;;;;34.13;15.95;;;;;;;;;;5085429;28;20116;-50
2024/03/02 11:22:51;;;;;;;33.40;17.45;;;;;;;;;;5090892;28;20031;-51
2024/03/02 11:25:27;;;;;;;33.22;16.35;;;;;;;;;;5092601;28;20034;-50
2024/03/02 11:27:56;;;;;;;31.02;16.02;;;;;;;;;;5089091;28;20408;-48
2024/03/02 11:30:36;;;;;;;29.35;15.48;;;;;;;;;;5094082;28;20034;-50
2024/03/02 11:33:09;;;;;;;29.90;16.17;;;;;;;;;;5086419;28;20074;-53
2024/03/02 11:35:35;;;;;;;29.42;15.55;;;;;;;;;;5091392;28;20129;-51
2024/03/02 11:38:03;;;;;;;26.27;14.55;;;;;;;;;;5091465;28;20115;-50
2024/03/02 11:40:29;;;;;;;32.13;15.15;;;;;;;;;;5070685;28;20032;-49
2024/03/02 11:42:55;;;;;;;28.83;15.68;;;;;;;;;;5094562;28;20032;-51
2024/03/02 11:45:27;;;;;;;25.48;13.93;;;;;;;;;;5090641;28;20107;-49
2024/03/02 11:47:57;;;;;;;24.10;13.50;;;;;;;;;;5078384;28;20031;-49
2024/03/02 11:50:35;;;;;;;29.55;14.05;;;;;;;;;;5091326;28;20051;-51
2024/03/02 11:53:01;;;;;;;28.88;13.55;;;;;;;;;;5090450;28;20032;-51
2024/03/02 11:55:27;;;;;;;26.05;12.82;;;;;;;;;;5091140;28;20088;-53
2024/03/02 11:57:53;;;;;;;25.98;14.18;;;;;;;;;;5091095;28;20044;-51
2024/03/02 12:00:20;;;;;;;27.33;13.68;;;;;;;;;;5090940;28;20030;-51
2024/03/02 12:03:00;;;;;;;26.85;13.25;;;;;;;;;;5078858;28;20414;-51
2024/03/02 12:05:27;;;;;;;24.50;13.18;;;;;;;;;;5094915;28;20024;-50
2024/03/02 12:08:00;;;;;;;23.63;12.55;;;;;;;;;;5086776;28;20028;-52
2024/03/02 12:10:26;;;;;;;23.55;12.73;;;;;;;;;;5073497;28;20036;-51
2024/03/02 12:12:56;;;;;;;21.35;12.60;;;;;;;;;;5084014;28;20032;-49
2024/03/02 12:15:32;;;;;;;24.02;13.23;;;;;;;;;;5091118;28;20024;-53
2024/03/02 12:17:58;;;;;;;20.75;12.63;;;;;;;;;;5092379;28;20059;-51
2024/03/02 12:20:25;;;;;;;24.30;13.23;;;;;;;;;;5078727;28;20028;-52
2024/03/02 12:22:52;;;;;;;20.83;11.82;;;;;;;;;;5095787;28;20435;-50
2024/03/02 12:25:19;;;;;;;20.80;11.52;;;;;;;;;;5094771;28;20035;-54
2024/03/02 12:27:45;;;;;;;20.70;12.20;;;;;;;;;;5089068;28;20039;-56
2024/03/02 12:30:13;;;;;;;20.70;11.68;;;;;;;;;;5094953;28;20028;-55
2024/03/02 12:32:39;;;;;;;20.13;10.65;;;;;;;;;;5103761;28;20158;-55
2024/03/02 12:35:05;;;;;;;20.95;11.65;;;;;;;;;;5096925;28;20702;-56
2024/03/02 12:37:31;;;;;;;18.63;10.50;;;;;;;;;;5095944;28;20028;-55
2024/03/02 12:39:58;;;;;;;20.17;10.88;;;;;;;;;;5102762;28;20502;-55
2024/03/02 12:42:25;;;;;;;20.25;11.52;;;;;;;;;;5093794;28;20027;-56
2024/03/02 12:44:56;;;;;;;22.40;11.18;;;;;;;;;;5094813;28;20443;-56
2024/03/02 12:47:23;;;;;;;18.08;9.82;;;;;;;;;;5100219;28;20159;-56
2024/03/02 12:49:50;;;;;;;16.52;9.23;;;;;;;;;;5099374;28;20034;-56
2024/03/02 12:52:18;;;;;;;15.73;9.32;;;;;;;;;;5093610;28;20510;-56
2024/03/02 12:54:44;;;;;;;13.63;8.45;;;;;;;;;;5088232;28;20039;-56
2024/03/02 12:57:10;;;;;;;18.95;9.10;;;;;;;;;;5091520;28;20098;-56
2024/03/02 12:59:37;;;;;;;17.10;10.02;;;;;;;;;;5093889;28;20558;-56
2024/03/02 13:02:03;;;;;;;14.13;8.15;;;;;;;;;;5086679;28;20101;-56
2024/03/02 13:04:30;;;;;;;15.70;9.20;;;;;;;;;;5093675;28;20028;-56
2024/03/02 13:06:57;;;;;;;17.13;10.23;;;;;;;;;;5086024;28;20060;-56
2024/03/02 13:09:23;;;;;;;16.27;9.48;;;;;;;;;;5086715;28;20044;-56
2024/03/02 13:11:49;;;;;;;15.57;9.20;;;;;;;;;;5091424;28;20028;-55
2024/03/02 13:14:15;;;;;;;16.08;9.75;;;;;;;;;;5080060;28;20135;-55
2024/03/02 13:16:42;;;;;;;18.45;10.32;;;;;;;;;;5077239;28;20028;-54
2024/03/02 13:19:08;;;;;;;17.17;10.15;;;;;;;;;;5090135;28;20093;-54
2024/03/02 13:21:34;;;;;;;17.80;10.50;;;;;;;;;;5087565;28;20074;-56
2024/03/02 13:24:01;;;;;;;18.33;10.10;;;;;;;;;;5093004;28;20059;-55
2024/03/02 13:26:27;;;;;;;24.38;10.23;;;;;;;;;;5080362;28;20066;-56
2024/03/02 13:28:53;;;;;;;17.52;10.60;;;;;;;;;;5086838;28;20452;-55
2024/03/02 13:31:20;;;;;;;17.95;10.07;;;;;;;;;;5094003;28;20028;-55
2024/03/02 13:33:46;;;;;;;19.05;10.98;;;;;;;;;;5093999;28;20062;-54
2024/03/02 13:36:12;;;;;;;20.58;11.25;;;;;;;;;;5106481;28;20335;-55
2024/03/02 13:38:38;;;;;;;17.40;9.77;;;;;;;;;;5093623;28;20130;-52
2024/03/02 13:41:04;;;;;;;23.02;11.82;;;;;;;;;;5096968;28;20012;-51
2024/03/02 13:43:35;;;;;;;16.70;10.82;;;;;;;;;;5099810;28;20028;-51
2024/03/02 13:46:01;;;;;;;21.50;11.55;;;;;;;;;;5089547;28;20058;-50
2024/03/02 13:48:27;;;;;;;23.27;11.30;;;;;;;;;;5106395;28;20058;-51
2024/03/02 13:50:53;;;;;;;23.90;11.23;;;;;;;;;;5092984;28;20467;-52
2024/03/02 13:53:19;;;;;;;17.98;9.60;;;;;;;;;;5086516;28;20028;-52
2024/03/02 13:55:45;;;;;;;19.02;10.10;;;;;;;;;;5085848;28;20103;-51
2024/03/02 13:58:11;;;;;;;20.77;10.88;;;;;;;;;;5092618;28;20546;-54
2024/03/02 14:00:38;;;;;;;16.73;9.93;;;;;;;;;;5084721;28;20048;-49
2024/03/02 14:03:05;;;;;;;18.90;9.30;;;;;;;;;;5085365;28;20023;-52
2024/03/02 14:05:31;;;;;;;18.58;10.15;;;;;;;;;;5088621;28;20079;-53
2024/03/02 14:07:57;;;;;;;18.40;9.93;;;;;;;;;;5092691;28;20028;-51
2024/03/02 14:10:23;;;;;;;21.67;11.77;;;;;;;;;;5092817;28;20028;-53
2024/03/02 14:12:49;;;;;;;18.23;9.73;;;;;;;;;;5092113;28;20384;-51
2024/03/02 14:15:15;;;;;;;19.25;9.73;;;;;;;;;;5092684;28;20085;-52
2024/03/02 14:17:42;;;;;;;18.50;9.70;;;;;;;;;;5092049;28;20513;-51
2024/03/02 14:20:11;;;;;;;23.38;12.85;;;;;;;;;;5092120;28;20101;-53
2024/03/02 14:22:37;;;;;;;17.88;9.93;;;;;;;;;;5092321;28;20055;-53